Weather reports worldwide

Advertisment
Levens Hall, United Kingdom (99172): temperature & dewpoint: 21.05.2018 09:00:00 - 27.05.2018 09:00:00 (BST)Levens Hall, United Kingdom (99172): precipitation: 21.05.2018 09:00:00 - 27.05.2018 09:00:00 (BST)
Date & Time tt [°C] td [°C] rr [mm]
27.05.2018 09:00:00 - - -
27.05.2018 08:00:00 17,8 12,0 0,0
27.05.2018 07:00:00 16,0 9,8 0,0
27.05.2018 06:00:00 15,0 8,8 0,0
27.05.2018 05:00:00 14,0 6,4 0,0
27.05.2018 04:00:00 14,1 5,3 0,0
27.05.2018 03:00:00 14,2 5,5 0,0
27.05.2018 02:00:00 10,2 8,0 0,0
27.05.2018 01:00:00 12,0 8,8 0,0
27.05.2018 00:00:00 12,6 8,8 0,0
26.05.2018 23:00:00 14,6 8,9 0,0
26.05.2018 22:00:00 15,6 8,6 0,0
26.05.2018 21:00:00 16,6 9,3 0,0
26.05.2018 20:00:00 19,3 8,7 0,0
26.05.2018 19:00:00 21,0 7,6 0,0
26.05.2018 18:00:00 22,1 9,5 0,0
26.05.2018 17:00:00 21,8 9,6 0,0
26.05.2018 16:00:00 22,3 10,5 0,0
26.05.2018 15:00:00 21,4 9,7 0,0
26.05.2018 14:00:00 20,3 8,7 0,0
26.05.2018 13:00:00 21,2 7,7 0,0
26.05.2018 12:00:00 21,0 9,2 0,0
26.05.2018 11:00:00 18,6 8,8 0,0
26.05.2018 10:00:00 19,3 9,4 0,0
26.05.2018 09:00:00 17,9 9,4 0,0
26.05.2018 08:00:00 15,4 9,5 0,0
26.05.2018 07:00:00 16,1 8,9 0,0
26.05.2018 06:00:00 14,7 11,3 0,0
26.05.2018 05:00:00 12,2 10,7 0,0
26.05.2018 04:00:00 11,8 10,4 0,0
26.05.2018 03:00:00 12,6 10,5 0,0
26.05.2018 02:00:00 13,5 10,3 0,0
26.05.2018 01:00:00 14,0 11,0 0,0
26.05.2018 00:00:00 13,5 10,6 0,0
25.05.2018 23:00:00 13,8 11,1 0,6
25.05.2018 22:00:00 14,2 11,6 0,8
25.05.2018 21:00:00 14,0 12,2 0,6
25.05.2018 20:00:00 15,3 12,0 0,0
25.05.2018 19:00:00 15,0 11,8 0,0
25.05.2018 18:00:00 15,4 12,5 0,2
25.05.2018 17:00:00 16,1 12,3 0,0
25.05.2018 16:00:00 16,7 11,8 0,0
25.05.2018 15:00:00 17,0 11,4 0,2
25.05.2018 14:00:00 18,0 9,9 0,0
25.05.2018 13:00:00 17,8 9,2 0,0
25.05.2018 12:00:00 18,2 9,1 0,0
25.05.2018 11:00:00 18,7 9,4 0,0
25.05.2018 10:00:00 18,0 9,3 0,0
25.05.2018 09:00:00 16,3 9,4 0,0
25.05.2018 08:00:00 14,7 8,4 0,0
25.05.2018 07:00:00 14,0 8,0 0,0
25.05.2018 06:00:00 13,4 8,0 0,0
25.05.2018 05:00:00 12,5 7,8 0,0
25.05.2018 04:00:00 12,5 7,5 0,0
25.05.2018 03:00:00 11,9 7,7 0,0
25.05.2018 02:00:00 9,9 7,3 0,0
25.05.2018 01:00:00 11,9 7,8 0,0
25.05.2018 00:00:00 12,7 8,4 0,0
24.05.2018 23:00:00 13,6 8,7 0,0
24.05.2018 22:00:00 15,3 8,8 0,0
24.05.2018 21:00:00 17,8 9,1 0,0
24.05.2018 20:00:00 19,6 9,3 0,0
24.05.2018 19:00:00 21,5 10,1 0,0
24.05.2018 18:00:00 22,6 10,9 0,0
24.05.2018 17:00:00 23,0 9,8 0,0
24.05.2018 16:00:00 23,3 10,6 0,0
24.05.2018 15:00:00 23,4 11,7 0,0
24.05.2018 14:00:00 22,5 11,0 0,0
24.05.2018 13:00:00 22,5 11,2 0,0
24.05.2018 12:00:00 21,4 10,4 0,0
24.05.2018 11:00:00 19,9 8,9 0,0
24.05.2018 10:00:00 18,1 9,1 0,0
24.05.2018 09:00:00 16,2 9,0 0,0
24.05.2018 08:00:00 13,6 7,9 0,0
24.05.2018 07:00:00 12,4 7,3 0,0
24.05.2018 06:00:00 8,4 5,9 0,0
24.05.2018 05:00:00 7,9 5,3 0,0
24.05.2018 04:00:00 8,7 5,4 0,0
24.05.2018 03:00:00 8,8 5,5 0,0
24.05.2018 02:00:00 9,8 6,0 0,0
24.05.2018 01:00:00 9,3 6,2 0,0
24.05.2018 00:00:00 10,5 6,7 0,0
23.05.2018 23:00:00 11,5 7,5 0,0
23.05.2018 22:00:00 12,6 8,4 0,0
23.05.2018 21:00:00 15,0 9,1 0,0
23.05.2018 20:00:00 17,6 9,6 0,0
23.05.2018 19:00:00 19,1 10,6 0,0
23.05.2018 18:00:00 19,8 11,0 0,0
23.05.2018 17:00:00 20,2 9,9 0,0
23.05.2018 16:00:00 19,2 9,2 0,0
23.05.2018 15:00:00 19,3 9,5 0,0
23.05.2018 14:00:00 18,6 9,2 0,0
23.05.2018 13:00:00 17,9 9,3 0,0
23.05.2018 12:00:00 17,0 9,4 0,0
23.05.2018 11:00:00 16,5 9,2 0,0
23.05.2018 10:00:00 14,5 7,7 0,0
23.05.2018 09:00:00 13,4 7,3 0,0
23.05.2018 08:00:00 11,4 7,3 0,0
23.05.2018 07:00:00 10,4 7,0 0,0
23.05.2018 06:00:00 8,1 6,0 0,0
23.05.2018 05:00:00 7,8 5,6 0,0
23.05.2018 04:00:00 8,0 5,4 0,0
23.05.2018 03:00:00 8,3 5,7 0,0
23.05.2018 02:00:00 7,3 5,0 0,0
23.05.2018 01:00:00 8,6 5,9 0,0
23.05.2018 00:00:00 8,8 6,0 0,0
22.05.2018 23:00:00 9,9 6,3 0,0
22.05.2018 22:00:00 11,8 7,0 0,0
22.05.2018 21:00:00 13,9 7,6 0,0
22.05.2018 20:00:00 16,4 8,9 0,0
22.05.2018 19:00:00 18,2 9,4 0,0
22.05.2018 18:00:00 18,8 8,9 0,0
22.05.2018 17:00:00 19,2 9,8 0,0
22.05.2018 16:00:00 19,0 9,5 0,0
22.05.2018 15:00:00 18,6 10,5 0,0
22.05.2018 14:00:00 18,3 10,0 0,0
22.05.2018 13:00:00 17,3 9,7 0,0
22.05.2018 12:00:00 16,3 9,1 0,0
22.05.2018 11:00:00 15,4 8,3 0,0
22.05.2018 10:00:00 14,6 8,5 0,0
22.05.2018 09:00:00 13,3 7,8 0,0
22.05.2018 08:00:00 11,9 7,9 0,0
22.05.2018 07:00:00 11,2 7,3 0,0
22.05.2018 06:00:00 11,6 7,4 0,0
22.05.2018 05:00:00 12,2 7,6 0,0
22.05.2018 04:00:00 13,7 9,8 0,0
22.05.2018 03:00:00 14,7 10,4 0,0
22.05.2018 02:00:00 14,8 11,0 0,0
22.05.2018 01:00:00 13,3 10,9 0,0
22.05.2018 00:00:00 13,2 10,1 0,0
21.05.2018 23:00:00 13,6 10,1 0,0
21.05.2018 22:00:00 14,3 9,3 0,0
21.05.2018 21:00:00 17,2 8,7 0,0
21.05.2018 20:00:00 19,1 9,9 0,0
21.05.2018 19:00:00 20,1 10,5 0,0
21.05.2018 18:00:00 22,5 10,7 0,0
21.05.2018 17:00:00 22,0 12,7 0,0
21.05.2018 16:00:00 22,9 10,2 0,0
21.05.2018 15:00:00 22,1 8,8 0,0
21.05.2018 14:00:00 21,7 10,9 0,0
21.05.2018 13:00:00 20,9 10,8 0,0
21.05.2018 12:00:00 20,3 11,7 0,0
21.05.2018 11:00:00 19,3 11,2 0,0
21.05.2018 10:00:00 18,2 11,7 0,0
21.05.2018 09:00:00 17,0 10,9 0,0

tt = temperature
td = dewpoint
rr = precipitation

Next stations